sensor_id;sensor_type;location;lat;lon;timestamp;P1;durP1;ratioP1;P2;durP2;ratioP2
16685;SDS011;8456;51.136;4.210;2022-08-01T00:00:32;10.87;;;5.17;;
16685;SDS011;8456;51.136;4.210;2022-08-01T00:02:59;7.87;;;4.70;;
16685;SDS011;8456;51.136;4.210;2022-08-01T00:05:24;9.70;;;4.80;;
16685;SDS011;8456;51.136;4.210;2022-08-01T00:07:50;12.13;;;6.00;;
16685;SDS011;8456;51.136;4.210;2022-08-01T00:10:16;11.53;;;5.60;;
16685;SDS011;8456;51.136;4.210;2022-08-01T00:12:43;12.27;;;6.70;;
16685;SDS011;8456;51.136;4.210;2022-08-01T00:15:11;9.63;;;6.30;;
16685;SDS011;8456;51.136;4.210;2022-08-01T00:17:38;10.67;;;6.07;;
16685;SDS011;8456;51.136;4.210;2022-08-01T00:20:05;15.07;;;6.90;;
16685;SDS011;8456;51.136;4.210;2022-08-01T00:22:33;12.17;;;6.13;;
16685;SDS011;8456;51.136;4.210;2022-08-01T00:24:59;12.27;;;6.03;;
16685;SDS011;8456;51.136;4.210;2022-08-01T00:27:25;13.17;;;6.77;;
16685;SDS011;8456;51.136;4.210;2022-08-01T00:29:52;10.23;;;5.63;;
16685;SDS011;8456;51.136;4.210;2022-08-01T00:32:18;9.07;;;5.97;;
16685;SDS011;8456;51.136;4.210;2022-08-01T00:34:43;9.37;;;6.20;;
16685;SDS011;8456;51.136;4.210;2022-08-01T00:37:09;9.30;;;6.47;;
16685;SDS011;8456;51.136;4.210;2022-08-01T00:39:35;9.77;;;6.40;;
16685;SDS011;8456;51.136;4.210;2022-08-01T00:42:10;11.67;;;6.60;;
16685;SDS011;8456;51.136;4.210;2022-08-01T00:44:37;8.20;;;6.70;;
16685;SDS011;8456;51.136;4.210;2022-08-01T00:47:04;10.43;;;6.83;;
16685;SDS011;8456;51.136;4.210;2022-08-01T00:49:31;9.83;;;6.70;;
16685;SDS011;8456;51.136;4.210;2022-08-01T00:51:57;9.23;;;7.43;;
16685;SDS011;8456;51.136;4.210;2022-08-01T00:54:26;8.67;;;6.87;;
16685;SDS011;8456;51.136;4.210;2022-08-01T00:56:53;9.80;;;7.77;;
16685;SDS011;8456;51.136;4.210;2022-08-01T00:59:19;16.07;;;8.07;;
16685;SDS011;8456;51.136;4.210;2022-08-01T01:01:47;9.80;;;7.90;;
16685;SDS011;8456;51.136;4.210;2022-08-01T01:04:14;12.70;;;9.27;;
16685;SDS011;8456;51.136;4.210;2022-08-01T01:09:12;15.73;;;10.30;;
16685;SDS011;8456;51.136;4.210;2022-08-01T01:14:34;22.67;;;10.13;;
16685;SDS011;8456;51.136;4.210;2022-08-01T01:17:06;16.93;;;10.83;;
16685;SDS011;8456;51.136;4.210;2022-08-01T01:19:33;16.43;;;11.40;;
16685;SDS011;8456;51.136;4.210;2022-08-01T01:22:17;18.87;;;12.27;;
16685;SDS011;8456;51.136;4.210;2022-08-01T01:28:02;19.07;;;13.57;;
16685;SDS011;8456;51.136;4.210;2022-08-01T01:30:49;25.50;;;14.30;;
16685;SDS011;8456;51.136;4.210;2022-08-01T01:33:18;21.40;;;14.93;;
16685;SDS011;8456;51.136;4.210;2022-08-01T01:35:47;20.37;;;15.77;;
16685;SDS011;8456;51.136;4.210;2022-08-01T01:38:17;21.90;;;15.47;;
16685;SDS011;8456;51.136;4.210;2022-08-01T01:40:46;22.90;;;16.57;;
16685;SDS011;8456;51.136;4.210;2022-08-01T01:43:14;29.97;;;17.40;;
16685;SDS011;8456;51.136;4.210;2022-08-01T01:45:41;26.20;;;16.73;;
16685;SDS011;8456;51.136;4.210;2022-08-01T01:48:13;31.23;;;18.10;;
16685;SDS011;8456;51.136;4.210;2022-08-01T01:50:42;29.97;;;19.67;;
16685;SDS011;8456;51.136;4.210;2022-08-01T01:53:10;26.17;;;19.10;;
16685;SDS011;8456;51.136;4.210;2022-08-01T01:55:39;27.43;;;20.23;;
16685;SDS011;8456;51.136;4.210;2022-08-01T01:58:07;29.30;;;21.37;;
16685;SDS011;8456;51.136;4.210;2022-08-01T02:00:35;27.97;;;21.40;;
16685;SDS011;8456;51.136;4.210;2022-08-01T02:03:04;36.67;;;21.67;;
16685;SDS011;8456;51.136;4.210;2022-08-01T02:05:31;31.93;;;23.97;;
16685;SDS011;8456;51.136;4.210;2022-08-01T02:07:59;39.83;;;23.73;;
16685;SDS011;8456;51.136;4.210;2022-08-01T02:10:28;32.93;;;23.70;;
16685;SDS011;8456;51.136;4.210;2022-08-01T02:12:56;29.20;;;20.57;;
16685;SDS011;8456;51.136;4.210;2022-08-01T02:15:24;25.30;;;19.07;;
16685;SDS011;8456;51.136;4.210;2022-08-01T02:17:53;23.10;;;15.20;;
16685;SDS011;8456;51.136;4.210;2022-08-01T02:20:21;25.07;;;12.90;;
16685;SDS011;8456;51.136;4.210;2022-08-01T02:22:56;16.33;;;11.47;;
16685;SDS011;8456;51.136;4.210;2022-08-01T02:25:28;18.27;;;10.13;;
16685;SDS011;8456;51.136;4.210;2022-08-01T02:28:03;20.23;;;10.40;;
16685;SDS011;8456;51.136;4.210;2022-08-01T02:30:33;20.37;;;9.13;;
16685;SDS011;8456;51.136;4.210;2022-08-01T02:33:08;13.90;;;9.27;;
16685;SDS011;8456;51.136;4.210;2022-08-01T02:35:41;18.40;;;9.13;;
16685;SDS011;8456;51.136;4.210;2022-08-01T02:38:11;20.33;;;9.50;;
16685;SDS011;8456;51.136;4.210;2022-08-01T02:40:39;15.30;;;9.60;;
16685;SDS011;8456;51.136;4.210;2022-08-01T02:43:08;20.13;;;10.97;;
16685;SDS011;8456;51.136;4.210;2022-08-01T02:45:37;14.90;;;10.10;;
16685;SDS011;8456;51.136;4.210;2022-08-01T02:48:09;20.43;;;11.37;;
16685;SDS011;8456;51.136;4.210;2022-08-01T02:50:37;20.40;;;11.57;;
16685;SDS011;8456;51.136;4.210;2022-08-01T02:53:07;16.27;;;11.40;;
16685;SDS011;8456;51.136;4.210;2022-08-01T02:55:36;19.07;;;11.47;;
16685;SDS011;8456;51.136;4.210;2022-08-01T02:58:04;14.77;;;10.43;;
16685;SDS011;8456;51.136;4.210;2022-08-01T03:00:33;17.03;;;10.33;;
16685;SDS011;8456;51.136;4.210;2022-08-01T03:03:00;16.43;;;10.73;;
16685;SDS011;8456;51.136;4.210;2022-08-01T03:05:28;16.33;;;11.37;;
16685;SDS011;8456;51.136;4.210;2022-08-01T03:07:55;15.37;;;10.10;;
16685;SDS011;8456;51.136;4.210;2022-08-01T03:10:23;12.47;;;9.73;;
16685;SDS011;8456;51.136;4.210;2022-08-01T03:12:52;11.77;;;9.13;;
16685;SDS011;8456;51.136;4.210;2022-08-01T03:15:18;14.77;;;8.57;;
16685;SDS011;8456;51.136;4.210;2022-08-01T03:17:45;13.07;;;9.00;;
16685;SDS011;8456;51.136;4.210;2022-08-01T03:20:14;12.87;;;7.67;;
16685;SDS011;8456;51.136;4.210;2022-08-01T03:22:43;13.33;;;7.77;;
16685;SDS011;8456;51.136;4.210;2022-08-01T03:25:10;11.47;;;8.67;;
16685;SDS011;8456;51.136;4.210;2022-08-01T03:27:38;10.97;;;7.40;;
16685;SDS011;8456;51.136;4.210;2022-08-01T03:30:07;9.93;;;7.97;;
16685;SDS011;8456;51.136;4.210;2022-08-01T03:32:33;10.70;;;7.67;;
16685;SDS011;8456;51.136;4.210;2022-08-01T03:34:59;11.57;;;8.00;;
16685;SDS011;8456;51.136;4.210;2022-08-01T03:37:26;11.77;;;8.17;;
16685;SDS011;8456;51.136;4.210;2022-08-01T03:39:58;8.83;;;7.93;;
16685;SDS011;8456;51.136;4.210;2022-08-01T03:42:32;13.53;;;10.00;;
16685;SDS011;8456;51.136;4.210;2022-08-01T03:45:03;15.13;;;9.83;;
16685;SDS011;8456;51.136;4.210;2022-08-01T03:47:34;13.80;;;10.80;;
16685;SDS011;8456;51.136;4.210;2022-08-01T03:50:01;15.50;;;11.73;;
16685;SDS011;8456;51.136;4.210;2022-08-01T03:52:29;12.30;;;10.80;;
16685;SDS011;8456;51.136;4.210;2022-08-01T03:54:58;13.77;;;11.77;;
16685;SDS011;8456;51.136;4.210;2022-08-01T03:57:28;13.83;;;11.17;;
16685;SDS011;8456;51.136;4.210;2022-08-01T03:59:55;14.77;;;11.30;;
16685;SDS011;8456;51.136;4.210;2022-08-01T04:02:22;14.63;;;11.23;;
16685;SDS011;8456;51.136;4.210;2022-08-01T04:04:49;12.23;;;10.33;;
16685;SDS011;8456;51.136;4.210;2022-08-01T04:07:22;14.23;;;10.87;;
16685;SDS011;8456;51.136;4.210;2022-08-01T04:09:51;13.67;;;11.03;;
16685;SDS011;8456;51.136;4.210;2022-08-01T04:12:17;15.33;;;10.73;;
16685;SDS011;8456;51.136;4.210;2022-08-01T04:14:43;14.40;;;11.00;;
16685;SDS011;8456;51.136;4.210;2022-08-01T04:17:09;15.30;;;10.07;;
16685;SDS011;8456;51.136;4.210;2022-08-01T04:19:35;13.93;;;10.83;;
16685;SDS011;8456;51.136;4.210;2022-08-01T04:22:01;13.50;;;11.40;;
16685;SDS011;8456;51.136;4.210;2022-08-01T04:24:27;16.47;;;11.33;;
16685;SDS011;8456;51.136;4.210;2022-08-01T04:26:55;15.37;;;10.83;;
16685;SDS011;8456;51.136;4.210;2022-08-01T04:29:23;13.63;;;10.17;;
16685;SDS011;8456;51.136;4.210;2022-08-01T04:31:50;14.63;;;9.67;;
16685;SDS011;8456;51.136;4.210;2022-08-01T04:34:20;12.03;;;9.97;;
16685;SDS011;8456;51.136;4.210;2022-08-01T04:36:48;14.73;;;9.93;;
16685;SDS011;8456;51.136;4.210;2022-08-01T04:39:16;11.43;;;9.30;;
16685;SDS011;8456;51.136;4.210;2022-08-01T04:41:45;13.93;;;9.67;;
16685;SDS011;8456;51.136;4.210;2022-08-01T04:44:12;11.33;;;8.70;;
16685;SDS011;8456;51.136;4.210;2022-08-01T04:46:39;12.13;;;8.77;;
16685;SDS011;8456;51.136;4.210;2022-08-01T04:49:08;11.93;;;8.63;;
16685;SDS011;8456;51.136;4.210;2022-08-01T04:51:37;11.43;;;8.40;;
16685;SDS011;8456;51.136;4.210;2022-08-01T04:54:23;9.03;;;8.13;;
16685;SDS011;8456;51.136;4.210;2022-08-01T04:56:50;9.23;;;8.33;;
16685;SDS011;8456;51.136;4.210;2022-08-01T04:59:18;10.17;;;7.20;;
16685;SDS011;8456;51.136;4.210;2022-08-01T05:02:03;12.47;;;7.80;;
16685;SDS011;8456;51.136;4.210;2022-08-01T05:04:29;8.13;;;6.77;;
16685;SDS011;8456;51.136;4.210;2022-08-01T05:06:55;9.00;;;7.07;;
16685;SDS011;8456;51.136;4.210;2022-08-01T05:09:21;9.30;;;7.43;;
16685;SDS011;8456;51.136;4.210;2022-08-01T05:11:46;8.47;;;7.13;;
16685;SDS011;8456;51.136;4.210;2022-08-01T05:14:12;10.00;;;6.87;;
16685;SDS011;8456;51.136;4.210;2022-08-01T05:16:38;11.37;;;7.43;;
16685;SDS011;8456;51.136;4.210;2022-08-01T05:19:04;8.43;;;7.30;;
16685;SDS011;8456;51.136;4.210;2022-08-01T05:21:29;10.10;;;7.20;;
16685;SDS011;8456;51.136;4.210;2022-08-01T05:23:55;10.33;;;8.53;;
16685;SDS011;8456;51.136;4.210;2022-08-01T05:26:21;10.17;;;8.13;;
16685;SDS011;8456;51.136;4.210;2022-08-01T05:28:48;9.83;;;8.03;;
16685;SDS011;8456;51.136;4.210;2022-08-01T05:31:13;9.10;;;7.40;;
16685;SDS011;8456;51.136;4.210;2022-08-01T05:33:39;9.67;;;7.40;;
16685;SDS011;8456;51.136;4.210;2022-08-01T05:36:05;8.73;;;6.90;;
16685;SDS011;8456;51.136;4.210;2022-08-01T05:38:31;7.70;;;6.90;;
16685;SDS011;8456;51.136;4.210;2022-08-01T05:40:56;8.20;;;6.10;;
16685;SDS011;8456;51.136;4.210;2022-08-01T05:43:22;8.33;;;6.43;;
16685;SDS011;8456;51.136;4.210;2022-08-01T05:45:48;7.33;;;5.97;;
16685;SDS011;8456;51.136;4.210;2022-08-01T05:48:14;5.83;;;5.10;;
16685;SDS011;8456;51.136;4.210;2022-08-01T05:50:39;5.67;;;5.07;;
16685;SDS011;8456;51.136;4.210;2022-08-01T05:53:05;5.87;;;4.00;;
16685;SDS011;8456;51.136;4.210;2022-08-01T05:55:31;4.77;;;4.37;;
16685;SDS011;8456;51.136;4.210;2022-08-01T05:57:57;6.03;;;4.17;;
16685;SDS011;8456;51.136;4.210;2022-08-01T06:00:23;3.70;;;3.40;;
16685;SDS011;8456;51.136;4.210;2022-08-01T06:02:48;4.67;;;3.33;;
16685;SDS011;8456;51.136;4.210;2022-08-01T06:05:15;3.57;;;2.90;;
16685;SDS011;8456;51.136;4.210;2022-08-01T06:07:41;5.33;;;2.93;;
16685;SDS011;8456;51.136;4.210;2022-08-01T06:10:07;5.53;;;2.90;;
16685;SDS011;8456;51.136;4.210;2022-08-01T06:12:33;3.80;;;2.60;;
16685;SDS011;8456;51.136;4.210;2022-08-01T06:15:00;4.47;;;2.43;;
16685;SDS011;8456;51.136;4.210;2022-08-01T06:17:25;2.87;;;2.27;;
16685;SDS011;8456;51.136;4.210;2022-08-01T06:19:51;2.03;;;1.77;;
16685;SDS011;8456;51.136;4.210;2022-08-01T06:22:17;2.53;;;1.80;;
16685;SDS011;8456;51.136;4.210;2022-08-01T06:24:43;1.43;;;1.20;;
16685;SDS011;8456;51.136;4.210;2022-08-01T06:27:08;2.57;;;1.23;;
16685;SDS011;8456;51.136;4.210;2022-08-01T06:29:34;1.93;;;1.37;;
16685;SDS011;8456;51.136;4.210;2022-08-01T06:32:00;2.73;;;1.30;;
16685;SDS011;8456;51.136;4.210;2022-08-01T06:34:26;2.17;;;1.10;;
16685;SDS011;8456;51.136;4.210;2022-08-01T06:36:52;2.03;;;1.10;;
16685;SDS011;8456;51.136;4.210;2022-08-01T06:39:17;2.30;;;1.30;;
16685;SDS011;8456;51.136;4.210;2022-08-01T06:41:43;3.90;;;1.27;;
16685;SDS011;8456;51.136;4.210;2022-08-01T06:44:11;1.40;;;0.97;;
16685;SDS011;8456;51.136;4.210;2022-08-01T06:46:37;2.20;;;1.00;;
16685;SDS011;8456;51.136;4.210;2022-08-01T06:49:03;1.27;;;0.87;;
16685;SDS011;8456;51.136;4.210;2022-08-01T06:51:29;3.80;;;1.20;;
16685;SDS011;8456;51.136;4.210;2022-08-01T06:53:55;2.97;;;0.80;;
16685;SDS011;8456;51.136;4.210;2022-08-01T06:56:21;1.80;;;1.00;;
16685;SDS011;8456;51.136;4.210;2022-08-01T06:58:48;2.03;;;1.27;;
16685;SDS011;8456;51.136;4.210;2022-08-01T07:01:15;2.33;;;1.03;;
16685;SDS011;8456;51.136;4.210;2022-08-01T07:03:41;1.53;;;0.80;;
16685;SDS011;8456;51.136;4.210;2022-08-01T07:06:07;3.80;;;0.80;;
16685;SDS011;8456;51.136;4.210;2022-08-01T07:08:33;2.63;;;0.67;;
16685;SDS011;8456;51.136;4.210;2022-08-01T07:10:58;0.80;;;0.57;;
16685;SDS011;8456;51.136;4.210;2022-08-01T07:13:27;1.73;;;0.60;;
16685;SDS011;8456;51.136;4.210;2022-08-01T07:15:56;1.93;;;0.73;;
16685;SDS011;8456;51.136;4.210;2022-08-01T07:18:22;1.93;;;0.57;;
16685;SDS011;8456;51.136;4.210;2022-08-01T07:20:48;1.17;;;0.60;;
16685;SDS011;8456;51.136;4.210;2022-08-01T07:23:14;1.40;;;0.70;;
16685;SDS011;8456;51.136;4.210;2022-08-01T07:25:41;0.73;;;0.70;;
16685;SDS011;8456;51.136;4.210;2022-08-01T07:28:07;2.57;;;0.60;;
16685;SDS011;8456;51.136;4.210;2022-08-01T07:30:33;2.27;;;0.60;;
16685;SDS011;8456;51.136;4.210;2022-08-01T07:32:59;2.37;;;0.80;;
16685;SDS011;8456;51.136;4.210;2022-08-01T07:35:26;2.70;;;0.77;;
16685;SDS011;8456;51.136;4.210;2022-08-01T07:37:52;2.70;;;0.50;;
16685;SDS011;8456;51.136;4.210;2022-08-01T07:40:20;0.77;;;0.70;;
16685;SDS011;8456;51.136;4.210;2022-08-01T07:42:46;1.07;;;0.50;;
16685;SDS011;8456;51.136;4.210;2022-08-01T07:45:12;0.60;;;0.50;;
16685;SDS011;8456;51.136;4.210;2022-08-01T07:47:39;1.43;;;0.60;;
16685;SDS011;8456;51.136;4.210;2022-08-01T07:50:05;0.93;;;0.50;;
16685;SDS011;8456;51.136;4.210;2022-08-01T07:52:32;2.97;;;0.60;;
16685;SDS011;8456;51.136;4.210;2022-08-01T07:54:58;1.57;;;0.63;;
16685;SDS011;8456;51.136;4.210;2022-08-01T07:57:24;3.03;;;0.90;;
16685;SDS011;8456;51.136;4.210;2022-08-01T07:59:51;1.93;;;0.67;;
16685;SDS011;8456;51.136;4.210;2022-08-01T08:02:16;1.23;;;0.60;;
16685;SDS011;8456;51.136;4.210;2022-08-01T08:04:42;1.50;;;0.50;;
16685;SDS011;8456;51.136;4.210;2022-08-01T08:07:08;2.57;;;0.80;;
16685;SDS011;8456;51.136;4.210;2022-08-01T08:09:34;3.30;;;0.80;;
16685;SDS011;8456;51.136;4.210;2022-08-01T08:12:00;1.17;;;0.70;;
16685;SDS011;8456;51.136;4.210;2022-08-01T08:14:25;1.33;;;0.70;;
16685;SDS011;8456;51.136;4.210;2022-08-01T08:16:51;3.63;;;1.10;;
16685;SDS011;8456;51.136;4.210;2022-08-01T08:19:17;1.70;;;0.50;;
16685;SDS011;8456;51.136;4.210;2022-08-01T08:21:43;1.40;;;0.60;;
16685;SDS011;8456;51.136;4.210;2022-08-01T08:24:09;4.47;;;0.60;;
16685;SDS011;8456;51.136;4.210;2022-08-01T08:26:48;1.02;;;0.65;;
16685;SDS011;8456;51.136;4.210;2022-08-01T08:29:15;1.13;;;0.80;;
16685;SDS011;8456;51.136;4.210;2022-08-01T08:31:42;6.03;;;0.80;;
16685;SDS011;8456;51.136;4.210;2022-08-01T08:34:08;3.47;;;1.08;;
16685;SDS011;8456;51.136;4.210;2022-08-01T08:36:37;1.30;;;0.68;;
16685;SDS011;8456;51.136;4.210;2022-08-01T08:39:03;2.97;;;1.10;;
16685;SDS011;8456;51.136;4.210;2022-08-01T08:41:30;1.58;;;0.70;;
16685;SDS011;8456;51.136;4.210;2022-08-01T08:43:56;4.18;;;1.05;;
16685;SDS011;8456;51.136;4.210;2022-08-01T08:46:25;4.18;;;1.10;;
16685;SDS011;8456;51.136;4.210;2022-08-01T08:48:52;2.03;;;1.00;;
16685;SDS011;8456;51.136;4.210;2022-08-01T08:51:19;4.80;;;1.20;;
16685;SDS011;8456;51.136;4.210;2022-08-01T08:53:48;2.53;;;1.30;;
16685;SDS011;8456;51.136;4.210;2022-08-01T08:56:17;3.65;;;1.48;;
16685;SDS011;8456;51.136;4.210;2022-08-01T08:58:44;4.30;;;1.15;;
16685;SDS011;8456;51.136;4.210;2022-08-01T09:01:10;3.72;;;1.10;;
16685;SDS011;8456;51.136;4.210;2022-08-01T09:03:37;2.95;;;1.10;;
16685;SDS011;8456;51.136;4.210;2022-08-01T09:06:04;4.47;;;1.15;;
16685;SDS011;8456;51.136;4.210;2022-08-01T09:08:30;6.25;;;1.52;;
16685;SDS011;8456;51.136;4.210;2022-08-01T09:10:56;3.95;;;1.40;;
16685;SDS011;8456;51.136;4.210;2022-08-01T09:13:22;5.88;;;1.40;;
16685;SDS011;8456;51.136;4.210;2022-08-01T09:15:51;2.28;;;1.17;;
16685;SDS011;8456;51.136;4.210;2022-08-01T09:18:35;2.78;;;1.08;;
16685;SDS011;8456;51.136;4.210;2022-08-01T09:23:50;3.47;;;1.33;;
16685;SDS011;8456;51.136;4.210;2022-08-01T09:26:18;2.67;;;1.20;;
16685;SDS011;8456;51.136;4.210;2022-08-01T09:28:55;2.75;;;1.02;;
16685;SDS011;8456;51.136;4.210;2022-08-01T09:31:21;5.10;;;1.35;;
16685;SDS011;8456;51.136;4.210;2022-08-01T09:33:51;4.88;;;1.15;;
16685;SDS011;8456;51.136;4.210;2022-08-01T09:36:20;1.80;;;0.90;;
16685;SDS011;8456;51.136;4.210;2022-08-01T09:38:47;1.40;;;0.75;;
16685;SDS011;8456;51.136;4.210;2022-08-01T09:41:14;2.58;;;1.08;;
16685;SDS011;8456;51.136;4.210;2022-08-01T09:43:40;2.83;;;0.95;;
16685;SDS011;8456;51.136;4.210;2022-08-01T09:46:13;2.70;;;1.05;;
16685;SDS011;8456;51.136;4.210;2022-08-01T09:48:54;3.10;;;0.90;;
16685;SDS011;8456;51.136;4.210;2022-08-01T09:51:32;1.83;;;0.90;;
16685;SDS011;8456;51.136;4.210;2022-08-01T09:54:00;4.20;;;0.93;;
16685;SDS011;8456;51.136;4.210;2022-08-01T09:56:34;2.50;;;0.90;;
16685;SDS011;8456;51.136;4.210;2022-08-01T09:59:06;3.90;;;0.80;;
16685;SDS011;8456;51.136;4.210;2022-08-01T10:01:43;2.13;;;1.10;;
16685;SDS011;8456;51.136;4.210;2022-08-01T10:04:15;1.27;;;0.80;;
16685;SDS011;8456;51.136;4.210;2022-08-01T10:06:46;1.77;;;1.10;;
16685;SDS011;8456;51.136;4.210;2022-08-01T10:09:27;2.28;;;0.90;;
16685;SDS011;8456;51.136;4.210;2022-08-01T10:11:58;2.35;;;1.10;;
16685;SDS011;8456;51.136;4.210;2022-08-01T10:14:26;3.17;;;1.02;;
16685;SDS011;8456;51.136;4.210;2022-08-01T10:16:52;3.00;;;0.93;;
16685;SDS011;8456;51.136;4.210;2022-08-01T10:19:24;1.60;;;0.90;;
16685;SDS011;8456;51.136;4.210;2022-08-01T10:21:52;2.40;;;0.90;;
16685;SDS011;8456;51.136;4.210;2022-08-01T10:24:19;3.45;;;0.82;;
16685;SDS011;8456;51.136;4.210;2022-08-01T10:26:47;2.75;;;0.82;;
16685;SDS011;8456;51.136;4.210;2022-08-01T10:29:17;2.35;;;0.80;;
16685;SDS011;8456;51.136;4.210;2022-08-01T10:31:48;3.35;;;0.98;;
16685;SDS011;8456;51.136;4.210;2022-08-01T10:34:14;3.35;;;1.00;;
16685;SDS011;8456;51.136;4.210;2022-08-01T10:36:46;2.25;;;0.88;;
16685;SDS011;8456;51.136;4.210;2022-08-01T10:39:13;2.80;;;0.95;;
16685;SDS011;8456;51.136;4.210;2022-08-01T10:41:39;2.83;;;0.93;;
16685;SDS011;8456;51.136;4.210;2022-08-01T10:44:09;1.83;;;1.00;;
16685;SDS011;8456;51.136;4.210;2022-08-01T10:46:38;3.33;;;1.15;;
16685;SDS011;8456;51.136;4.210;2022-08-01T10:49:10;5.97;;;0.90;;
16685;SDS011;8456;51.136;4.210;2022-08-01T10:51:38;4.25;;;0.82;;
16685;SDS011;8456;51.136;4.210;2022-08-01T10:54:06;2.45;;;1.00;;
16685;SDS011;8456;51.136;4.210;2022-08-01T10:56:43;3.15;;;0.88;;
16685;SDS011;8456;51.136;4.210;2022-08-01T10:59:10;2.10;;;0.75;;
16685;SDS011;8456;51.136;4.210;2022-08-01T11:02:03;3.47;;;0.88;;
16685;SDS011;8456;51.136;4.210;2022-08-01T11:07:06;1.77;;;0.80;;
16685;SDS011;8456;51.136;4.210;2022-08-01T11:12:13;3.40;;;1.05;;
16685;SDS011;8456;51.136;4.210;2022-08-01T11:15:23;4.22;;;1.20;;
16685;SDS011;8456;51.136;4.210;2022-08-01T11:17:39;3.05;;;1.23;;
16685;SDS011;8456;51.136;4.210;2022-08-01T11:20:23;2.85;;;0.80;;
16685;SDS011;8456;51.136;4.210;2022-08-01T11:28:21;1.83;;;0.95;;
16685;SDS011;8456;51.136;4.210;2022-08-01T11:31:24;5.88;;;2.00;;
16685;SDS011;8456;51.136;4.210;2022-08-01T11:38:39;2.22;;;1.10;;
16685;SDS011;8456;51.136;4.210;2022-08-01T11:41:13;5.20;;;1.00;;
16685;SDS011;8456;51.136;4.210;2022-08-01T11:52:00;4.72;;;1.10;;
16685;SDS011;8456;51.136;4.210;2022-08-01T11:54:56;3.15;;;1.30;;
16685;SDS011;8456;51.136;4.210;2022-08-01T11:57:26;2.95;;;1.17;;
16685;SDS011;8456;51.136;4.210;2022-08-01T11:59:56;2.47;;;1.00;;
16685;SDS011;8456;51.136;4.210;2022-08-01T12:02:31;2.08;;;0.90;;
16685;SDS011;8456;51.136;4.210;2022-08-01T12:05:05;5.35;;;1.83;;
16685;SDS011;8456;51.136;4.210;2022-08-01T12:07:37;3.17;;;1.30;;
16685;SDS011;8456;51.136;4.210;2022-08-01T12:12:48;4.30;;;1.43;;
16685;SDS011;8456;51.136;4.210;2022-08-01T12:15:15;1.88;;;0.90;;
16685;SDS011;8456;51.136;4.210;2022-08-01T12:17:49;3.25;;;0.88;;
16685;SDS011;8456;51.136;4.210;2022-08-01T12:20:19;1.90;;;0.90;;
16685;SDS011;8456;51.136;4.210;2022-08-01T12:22:46;3.30;;;0.90;;
16685;SDS011;8456;51.136;4.210;2022-08-01T12:25:16;2.60;;;1.00;;
16685;SDS011;8456;51.136;4.210;2022-08-01T12:27:43;3.72;;;0.93;;
16685;SDS011;8456;51.136;4.210;2022-08-01T12:30:11;2.03;;;0.90;;
16685;SDS011;8456;51.136;4.210;2022-08-01T12:32:40;1.92;;;0.90;;
16685;SDS011;8456;51.136;4.210;2022-08-01T12:35:18;2.53;;;0.95;;
16685;SDS011;8456;51.136;4.210;2022-08-01T12:37:49;1.48;;;0.70;;
16685;SDS011;8456;51.136;4.210;2022-08-01T12:40:23;1.43;;;0.83;;
16685;SDS011;8456;51.136;4.210;2022-08-01T12:43:00;2.53;;;1.00;;
16685;SDS011;8456;51.136;4.210;2022-08-01T12:45:37;2.40;;;0.90;;
16685;SDS011;8456;51.136;4.210;2022-08-01T12:48:10;1.73;;;0.80;;
16685;SDS011;8456;51.136;4.210;2022-08-01T12:50:44;1.92;;;0.90;;
16685;SDS011;8456;51.136;4.210;2022-08-01T12:53:12;1.00;;;0.70;;
16685;SDS011;8456;51.136;4.210;2022-08-01T12:55:47;1.87;;;0.90;;
16685;SDS011;8456;51.136;4.210;2022-08-01T12:58:15;2.93;;;1.07;;
16685;SDS011;8456;51.136;4.210;2022-08-01T13:00:42;3.28;;;0.82;;
16685;SDS011;8456;51.136;4.210;2022-08-01T13:03:10;1.17;;;0.73;;
16685;SDS011;8456;51.136;4.210;2022-08-01T13:05:48;1.50;;;0.77;;
16685;SDS011;8456;51.136;4.210;2022-08-01T13:08:21;2.30;;;0.97;;
16685;SDS011;8456;51.136;4.210;2022-08-01T13:10:50;1.40;;;0.77;;
16685;SDS011;8456;51.136;4.210;2022-08-01T13:13:46;4.15;;;1.00;;
16685;SDS011;8456;51.136;4.210;2022-08-01T13:16:22;1.75;;;1.00;;
16685;SDS011;8456;51.136;4.210;2022-08-01T13:18:56;1.60;;;0.70;;
16685;SDS011;8456;51.136;4.210;2022-08-01T13:21:27;1.52;;;0.77;;
16685;SDS011;8456;51.136;4.210;2022-08-01T13:26:41;1.90;;;0.73;;
16685;SDS011;8456;51.136;4.210;2022-08-01T13:29:08;2.22;;;0.88;;
16685;SDS011;8456;51.136;4.210;2022-08-01T13:31:35;2.15;;;1.13;;
16685;SDS011;8456;51.136;4.210;2022-08-01T13:34:02;6.27;;;1.20;;
16685;SDS011;8456;51.136;4.210;2022-08-01T13:36:28;4.28;;;0.90;;
16685;SDS011;8456;51.136;4.210;2022-08-01T13:39:00;5.47;;;1.30;;
16685;SDS011;8456;51.136;4.210;2022-08-01T13:41:45;5.37;;;1.50;;
16685;SDS011;8456;51.136;4.210;2022-08-01T13:44:12;2.87;;;1.30;;
16685;SDS011;8456;51.136;4.210;2022-08-01T13:46:38;4.77;;;1.37;;
16685;SDS011;8456;51.136;4.210;2022-08-01T13:49:05;2.10;;;1.10;;
16685;SDS011;8456;51.136;4.210;2022-08-01T13:51:32;5.57;;;1.20;;
16685;SDS011;8456;51.136;4.210;2022-08-01T13:54:00;2.37;;;1.30;;
16685;SDS011;8456;51.136;4.210;2022-08-01T13:56:26;3.13;;;1.00;;
16685;SDS011;8456;51.136;4.210;2022-08-01T13:58:53;2.40;;;1.00;;
16685;SDS011;8456;51.136;4.210;2022-08-01T14:01:20;3.97;;;1.07;;
16685;SDS011;8456;51.136;4.210;2022-08-01T14:03:46;2.63;;;1.20;;
16685;SDS011;8456;51.136;4.210;2022-08-01T14:06:13;4.50;;;1.47;;
16685;SDS011;8456;51.136;4.210;2022-08-01T14:08:41;5.20;;;1.10;;
16685;SDS011;8456;51.136;4.210;2022-08-01T14:11:08;1.97;;;1.00;;
16685;SDS011;8456;51.136;4.210;2022-08-01T14:13:34;3.77;;;1.10;;
16685;SDS011;8456;51.136;4.210;2022-08-01T14:16:02;5.73;;;1.30;;
16685;SDS011;8456;51.136;4.210;2022-08-01T14:18:28;6.05;;;1.20;;
16685;SDS011;8456;51.136;4.210;2022-08-01T14:20:54;4.20;;;1.20;;
16685;SDS011;8456;51.136;4.210;2022-08-01T14:23:19;4.57;;;1.20;;
16685;SDS011;8456;51.136;4.210;2022-08-01T14:25:45;2.97;;;1.23;;
16685;SDS011;8456;51.136;4.210;2022-08-01T14:28:19;3.75;;;0.95;;
16685;SDS011;8456;51.136;4.210;2022-08-01T14:30:45;5.33;;;1.20;;
16685;SDS011;8456;51.136;4.210;2022-08-01T14:33:12;2.93;;;1.27;;
16685;SDS011;8456;51.136;4.210;2022-08-01T14:35:38;4.43;;;1.20;;
16685;SDS011;8456;51.136;4.210;2022-08-01T14:38:04;2.67;;;1.27;;
16685;SDS011;8456;51.136;4.210;2022-08-01T14:40:31;4.20;;;1.17;;
16685;SDS011;8456;51.136;4.210;2022-08-01T14:42:57;3.73;;;1.00;;
16685;SDS011;8456;51.136;4.210;2022-08-01T14:45:22;3.13;;;0.90;;
16685;SDS011;8456;51.136;4.210;2022-08-01T14:47:48;3.27;;;1.20;;
16685;SDS011;8456;51.136;4.210;2022-08-01T14:50:15;2.53;;;0.90;;
16685;SDS011;8456;51.136;4.210;2022-08-01T14:52:41;3.33;;;0.80;;
16685;SDS011;8456;51.136;4.210;2022-08-01T14:55:08;3.43;;;1.27;;
16685;SDS011;8456;51.136;4.210;2022-08-01T14:57:35;2.50;;;0.97;;
16685;SDS011;8456;51.136;4.210;2022-08-01T15:00:03;2.17;;;0.90;;
16685;SDS011;8456;51.136;4.210;2022-08-01T15:02:30;3.57;;;1.07;;
16685;SDS011;8456;51.136;4.210;2022-08-01T15:04:56;2.87;;;0.93;;
16685;SDS011;8456;51.136;4.210;2022-08-01T15:07:22;1.90;;;0.90;;
16685;SDS011;8456;51.136;4.210;2022-08-01T15:09:48;1.50;;;0.70;;
16685;SDS011;8456;51.136;4.210;2022-08-01T15:12:14;2.07;;;0.97;;
16685;SDS011;8456;51.136;4.210;2022-08-01T15:14:39;2.00;;;0.80;;
16685;SDS011;8456;51.136;4.210;2022-08-01T15:19:49;3.17;;;1.00;;
16685;SDS011;8456;51.136;4.210;2022-08-01T15:22:17;2.60;;;0.93;;
16685;SDS011;8456;51.136;4.210;2022-08-01T15:24:46;1.77;;;1.03;;
16685;SDS011;8456;51.136;4.210;2022-08-01T15:27:12;4.33;;;1.00;;
16685;SDS011;8456;51.136;4.210;2022-08-01T15:29:38;3.63;;;1.10;;
16685;SDS011;8456;51.136;4.210;2022-08-01T15:32:04;4.13;;;1.10;;
16685;SDS011;8456;51.136;4.210;2022-08-01T15:34:31;2.67;;;0.90;;
16685;SDS011;8456;51.136;4.210;2022-08-01T15:36:58;3.57;;;1.00;;
16685;SDS011;8456;51.136;4.210;2022-08-01T15:39:24;2.50;;;1.00;;
16685;SDS011;8456;51.136;4.210;2022-08-01T15:41:50;4.47;;;0.83;;
16685;SDS011;8456;51.136;4.210;2022-08-01T15:44:16;4.07;;;0.90;;
16685;SDS011;8456;51.136;4.210;2022-08-01T15:46:45;2.77;;;0.90;;